Mahnomen, MN (56557)

12:52 PM CDT on August 27, 2016 (GMT -0500)
Gunderson Farm | | Change Station

Elev 1207 ft 47.46 °N, 96.04 °W | Updated 6 seconds ago

Heavy Rain
Heavy Rain
57.7 °F
Feels Like 57.7 °F
N
4.9
Wind Variable Wind from ENE
Gusts 7.4 mph

Today
High -- | Low -- °F
--% Chance of Precip.
Yesterday
High -- | Low -- °F
Precip. -- in
Pressure 29.99 in
Visibility 7.0 miles
Clouds Scattered Clouds 1600 ft
Mostly Cloudy 6000 ft
Overcast 8500 ft
Dew Point 58 °F
Humidity 99%
Rainfall 0.63 in
Snow Depth Not available.
6:36 AM 8:12 PM
Waning Crescent, 23% visible
METAR KFSE 271735Z AUTO 00000KT 7SM +RA SCT016 BKN060 OVC085 13/12 A2999 RMK AO2 LTG DSNT SW THRU NW P0008
Pressure 29.99 in
Visibility 7.0 miles
Clouds Scattered Clouds 1600 ft
Mostly Cloudy 6000 ft
Overcast 8500 ft
Dew Point 58 °F
Humidity 99%
Rainfall 0.63 in
Snow Depth Not available.
6:36 AM 8:12 PM
Waning Crescent, 23% visible
METAR KFSE 271735Z AUTO 00000KT 7SM +RA SCT016 BKN060 OVC085 13/12 A2999 RMK AO2 LTG DSNT SW THRU NW P0008

10-Day Weather Forecast

Almanac

Astronomy

Aug. 27, 2016 Rise Set
Actual Time
Civil Twilight
Nautical Twilight
Astronomical Twilight
Moon
Length of Visible Light
Length of Day
Tomorrow will be .
, % of the Moon is Illuminated

Today's Extremes

State Highs State Lows

Community

WunderPhotos

Upload Photos

1,935,387 photos uploaded!

WunderBlog® & News

Nearby

Air Quality

  Air Quality AQ Index Pollutant
Not available.

Snow Depth

Station Depth Elevation

Earthquake Activity

City Distance Mag. Time & Date
Minimum magnitude displayed is 2.5.

Coastal Water Temperatures

Place Temperature

Stations

Nearby Weather Stations

Station Location Temp. Windchill Dew Point Humidity Wind Precip. Elev Updated Type
                   

Watches & Warnings

There are currently no watches in effect.